sensor_id;sensor_type;location;lat;lon;timestamp;P1;durP1;ratioP1;P2;durP2;ratioP2
12878;SDS011;20617;49.476;10.986;2023-06-14T00:01:53;4.53;;;3.15;;
12878;SDS011;20617;49.476;10.986;2023-06-14T00:03:58;8.43;;;3.15;;
12878;SDS011;20617;49.476;10.986;2023-06-14T00:08:08;4.85;;;3.40;;
12878;SDS011;20617;49.476;10.986;2023-06-14T00:10:14;7.07;;;3.22;;
12878;SDS011;20617;49.476;10.986;2023-06-14T00:12:22;4.68;;;3.38;;
12878;SDS011;20617;49.476;10.986;2023-06-14T00:14:27;8.45;;;3.40;;
12878;SDS011;20617;49.476;10.986;2023-06-14T00:16:32;6.80;;;3.47;;
12878;SDS011;20617;49.476;10.986;2023-06-14T00:18:38;5.13;;;3.22;;
12878;SDS011;20617;49.476;10.986;2023-06-14T00:20:43;8.05;;;3.53;;
12878;SDS011;20617;49.476;10.986;2023-06-14T00:22:48;5.15;;;3.42;;
12878;SDS011;20617;49.476;10.986;2023-06-14T00:24:53;6.88;;;3.92;;
12878;SDS011;20617;49.476;10.986;2023-06-14T00:26:58;7.22;;;5.47;;
12878;SDS011;20617;49.476;10.986;2023-06-14T00:31:11;9.48;;;3.55;;
12878;SDS011;20617;49.476;10.986;2023-06-14T00:35:21;5.55;;;3.33;;
12878;SDS011;20617;49.476;10.986;2023-06-14T00:37:27;5.57;;;3.30;;
12878;SDS011;20617;49.476;10.986;2023-06-14T00:39:32;6.72;;;3.08;;
12878;SDS011;20617;49.476;10.986;2023-06-14T00:41:36;7.82;;;3.42;;
12878;SDS011;20617;49.476;10.986;2023-06-14T00:43:42;5.50;;;3.25;;
12878;SDS011;20617;49.476;10.986;2023-06-14T00:45:49;3.78;;;3.10;;
12878;SDS011;20617;49.476;10.986;2023-06-14T00:47:54;8.00;;;3.40;;
12878;SDS011;20617;49.476;10.986;2023-06-14T00:50:00;4.65;;;3.20;;
12878;SDS011;20617;49.476;10.986;2023-06-14T00:52:07;7.15;;;3.40;;
12878;SDS011;20617;49.476;10.986;2023-06-14T00:54:13;4.93;;;3.00;;
12878;SDS011;20617;49.476;10.986;2023-06-14T00:56:18;5.93;;;3.33;;
12878;SDS011;20617;49.476;10.986;2023-06-14T00:58:25;4.13;;;2.97;;
12878;SDS011;20617;49.476;10.986;2023-06-14T01:00:31;6.00;;;3.30;;
12878;SDS011;20617;49.476;10.986;2023-06-14T01:02:38;5.82;;;3.83;;
12878;SDS011;20617;49.476;10.986;2023-06-14T01:04:45;4.43;;;3.40;;
12878;SDS011;20617;49.476;10.986;2023-06-14T01:06:53;4.15;;;3.22;;
12878;SDS011;20617;49.476;10.986;2023-06-14T01:09:07;5.28;;;3.35;;
12878;SDS011;20617;49.476;10.986;2023-06-14T01:11:21;4.57;;;3.35;;
12878;SDS011;20617;49.476;10.986;2023-06-14T01:13:32;6.38;;;3.50;;
12878;SDS011;20617;49.476;10.986;2023-06-14T01:15:39;7.35;;;3.28;;
12878;SDS011;20617;49.476;10.986;2023-06-14T01:17:48;3.97;;;3.42;;
12878;SDS011;20617;49.476;10.986;2023-06-14T01:19:55;6.43;;;3.53;;
12878;SDS011;20617;49.476;10.986;2023-06-14T01:22:01;4.65;;;3.35;;
12878;SDS011;20617;49.476;10.986;2023-06-14T01:24:09;5.88;;;3.28;;
12878;SDS011;20617;49.476;10.986;2023-06-14T01:26:15;4.32;;;3.00;;
12878;SDS011;20617;49.476;10.986;2023-06-14T01:28:20;4.20;;;3.05;;
12878;SDS011;20617;49.476;10.986;2023-06-14T01:30:27;6.60;;;3.67;;
12878;SDS011;20617;49.476;10.986;2023-06-14T01:32:35;4.97;;;3.30;;
12878;SDS011;20617;49.476;10.986;2023-06-14T01:34:40;7.90;;;4.05;;
12878;SDS011;20617;49.476;10.986;2023-06-14T01:38:51;4.38;;;3.50;;
12878;SDS011;20617;49.476;10.986;2023-06-14T01:41:00;4.15;;;3.10;;
12878;SDS011;20617;49.476;10.986;2023-06-14T01:43:06;4.90;;;3.17;;
12878;SDS011;20617;49.476;10.986;2023-06-14T01:45:12;4.88;;;3.33;;
12878;SDS011;20617;49.476;10.986;2023-06-14T01:49:22;4.88;;;3.90;;
12878;SDS011;20617;49.476;10.986;2023-06-14T01:51:27;5.60;;;3.45;;
12878;SDS011;20617;49.476;10.986;2023-06-14T01:53:32;5.80;;;3.78;;
12878;SDS011;20617;49.476;10.986;2023-06-14T01:57:47;5.47;;;3.47;;
12878;SDS011;20617;49.476;10.986;2023-06-14T01:59:52;4.43;;;3.45;;
12878;SDS011;20617;49.476;10.986;2023-06-14T02:01:59;4.70;;;3.58;;
12878;SDS011;20617;49.476;10.986;2023-06-14T02:04:06;4.95;;;3.55;;
12878;SDS011;20617;49.476;10.986;2023-06-14T02:06:12;5.15;;;3.67;;
12878;SDS011;20617;49.476;10.986;2023-06-14T02:08:17;5.90;;;4.35;;
12878;SDS011;20617;49.476;10.986;2023-06-14T02:12:29;7.63;;;3.55;;
12878;SDS011;20617;49.476;10.986;2023-06-14T02:16:41;6.72;;;4.25;;
12878;SDS011;20617;49.476;10.986;2023-06-14T02:18:51;6.72;;;3.88;;
12878;SDS011;20617;49.476;10.986;2023-06-14T02:20:57;7.10;;;3.72;;
12878;SDS011;20617;49.476;10.986;2023-06-14T02:23:02;4.55;;;3.60;;
12878;SDS011;20617;49.476;10.986;2023-06-14T02:25:09;4.50;;;3.53;;
12878;SDS011;20617;49.476;10.986;2023-06-14T02:27:15;5.90;;;3.83;;
12878;SDS011;20617;49.476;10.986;2023-06-14T02:29:20;10.15;;;3.92;;
12878;SDS011;20617;49.476;10.986;2023-06-14T02:31:27;5.20;;;3.47;;
12878;SDS011;20617;49.476;10.986;2023-06-14T02:33:32;5.63;;;3.88;;
12878;SDS011;20617;49.476;10.986;2023-06-14T02:35:37;6.40;;;4.10;;
12878;SDS011;20617;49.476;10.986;2023-06-14T02:37:43;11.43;;;5.03;;
12878;SDS011;20617;49.476;10.986;2023-06-14T02:39:48;5.10;;;3.33;;
12878;SDS011;20617;49.476;10.986;2023-06-14T02:41:53;4.32;;;3.42;;
12878;SDS011;20617;49.476;10.986;2023-06-14T02:43:58;7.43;;;4.30;;
12878;SDS011;20617;49.476;10.986;2023-06-14T02:46:03;5.20;;;4.35;;
12878;SDS011;20617;49.476;10.986;2023-06-14T02:48:11;5.38;;;3.80;;
12878;SDS011;20617;49.476;10.986;2023-06-14T02:50:16;6.10;;;4.28;;
12878;SDS011;20617;49.476;10.986;2023-06-14T02:52:23;6.97;;;4.10;;
12878;SDS011;20617;49.476;10.986;2023-06-14T02:54:28;5.95;;;4.45;;
12878;SDS011;20617;49.476;10.986;2023-06-14T02:56:33;4.68;;;4.18;;
12878;SDS011;20617;49.476;10.986;2023-06-14T02:58:38;6.43;;;3.97;;
12878;SDS011;20617;49.476;10.986;2023-06-14T03:00:44;5.07;;;3.83;;
12878;SDS011;20617;49.476;10.986;2023-06-14T03:02:49;4.43;;;3.45;;
12878;SDS011;20617;49.476;10.986;2023-06-14T03:04:58;6.15;;;4.07;;
12878;SDS011;20617;49.476;10.986;2023-06-14T03:07:05;5.10;;;3.80;;
12878;SDS011;20617;49.476;10.986;2023-06-14T03:09:13;6.43;;;3.95;;
12878;SDS011;20617;49.476;10.986;2023-06-14T03:11:18;6.13;;;4.13;;
12878;SDS011;20617;49.476;10.986;2023-06-14T03:13:24;6.45;;;4.15;;
12878;SDS011;20617;49.476;10.986;2023-06-14T03:15:34;5.53;;;3.95;;
12878;SDS011;20617;49.476;10.986;2023-06-14T03:17:40;5.15;;;4.00;;
12878;SDS011;20617;49.476;10.986;2023-06-14T03:19:49;8.15;;;3.53;;
12878;SDS011;20617;49.476;10.986;2023-06-14T03:24:04;8.10;;;4.28;;
12878;SDS011;20617;49.476;10.986;2023-06-14T03:26:10;5.45;;;4.05;;
12878;SDS011;20617;49.476;10.986;2023-06-14T03:28:17;6.90;;;4.22;;
12878;SDS011;20617;49.476;10.986;2023-06-14T03:30:22;9.45;;;4.28;;
12878;SDS011;20617;49.476;10.986;2023-06-14T03:34:36;4.80;;;3.63;;
12878;SDS011;20617;49.476;10.986;2023-06-14T03:36:43;4.65;;;3.55;;
12878;SDS011;20617;49.476;10.986;2023-06-14T03:38:51;5.70;;;4.25;;
12878;SDS011;20617;49.476;10.986;2023-06-14T03:40:57;7.03;;;3.80;;
12878;SDS011;20617;49.476;10.986;2023-06-14T03:43:02;5.15;;;3.72;;
12878;SDS011;20617;49.476;10.986;2023-06-14T03:45:07;5.47;;;3.90;;
12878;SDS011;20617;49.476;10.986;2023-06-14T03:49:18;4.10;;;3.70;;
12878;SDS011;20617;49.476;10.986;2023-06-14T03:53:28;5.13;;;3.70;;
12878;SDS011;20617;49.476;10.986;2023-06-14T03:55:36;5.03;;;4.22;;
12878;SDS011;20617;49.476;10.986;2023-06-14T03:58:08;7.88;;;3.95;;
12878;SDS011;20617;49.476;10.986;2023-06-14T04:00:15;5.68;;;3.97;;
12878;SDS011;20617;49.476;10.986;2023-06-14T04:02:21;7.05;;;4.40;;
12878;SDS011;20617;49.476;10.986;2023-06-14T04:04:26;6.32;;;4.30;;
12878;SDS011;20617;49.476;10.986;2023-06-14T04:06:33;5.93;;;4.28;;
12878;SDS011;20617;49.476;10.986;2023-06-14T04:08:39;5.95;;;3.85;;
12878;SDS011;20617;49.476;10.986;2023-06-14T04:12:52;6.05;;;4.45;;
12878;SDS011;20617;49.476;10.986;2023-06-14T04:14:57;8.10;;;4.35;;
12878;SDS011;20617;49.476;10.986;2023-06-14T04:17:22;5.37;;;4.10;;
12878;SDS011;20617;49.476;10.986;2023-06-14T04:19:27;8.27;;;4.57;;
12878;SDS011;20617;49.476;10.986;2023-06-14T04:21:32;9.73;;;4.10;;
12878;SDS011;20617;49.476;10.986;2023-06-14T04:23:39;4.82;;;3.97;;
12878;SDS011;20617;49.476;10.986;2023-06-14T04:25:50;6.85;;;4.10;;
12878;SDS011;20617;49.476;10.986;2023-06-14T04:27:56;5.43;;;4.20;;
12878;SDS011;20617;49.476;10.986;2023-06-14T04:32:11;6.43;;;4.22;;
12878;SDS011;20617;49.476;10.986;2023-06-14T04:34:17;5.97;;;4.35;;
12878;SDS011;20617;49.476;10.986;2023-06-14T04:36:29;6.55;;;3.95;;
12878;SDS011;20617;49.476;10.986;2023-06-14T04:38:36;4.95;;;4.13;;
12878;SDS011;20617;49.476;10.986;2023-06-14T04:40:41;4.68;;;3.90;;
12878;SDS011;20617;49.476;10.986;2023-06-14T04:42:53;8.75;;;3.78;;
12878;SDS011;20617;49.476;10.986;2023-06-14T04:44:58;6.30;;;4.18;;
12878;SDS011;20617;49.476;10.986;2023-06-14T04:47:04;5.78;;;3.83;;
12878;SDS011;20617;49.476;10.986;2023-06-14T04:49:10;5.65;;;3.90;;
12878;SDS011;20617;49.476;10.986;2023-06-14T04:51:17;4.75;;;3.40;;
12878;SDS011;20617;49.476;10.986;2023-06-14T04:53:22;4.03;;;3.63;;
12878;SDS011;20617;49.476;10.986;2023-06-14T04:55:31;8.52;;;3.50;;
12878;SDS011;20617;49.476;10.986;2023-06-14T04:57:38;5.20;;;4.20;;
12878;SDS011;20617;49.476;10.986;2023-06-14T04:59:46;5.40;;;3.60;;
12878;SDS011;20617;49.476;10.986;2023-06-14T05:01:58;5.80;;;3.85;;
12878;SDS011;20617;49.476;10.986;2023-06-14T05:04:03;6.32;;;3.97;;
12878;SDS011;20617;49.476;10.986;2023-06-14T05:08:14;5.80;;;3.85;;
12878;SDS011;20617;49.476;10.986;2023-06-14T05:10:20;6.75;;;4.28;;
12878;SDS011;20617;49.476;10.986;2023-06-14T05:14:31;6.47;;;4.10;;
12878;SDS011;20617;49.476;10.986;2023-06-14T05:16:40;10.00;;;4.10;;
12878;SDS011;20617;49.476;10.986;2023-06-14T05:18:45;8.63;;;3.40;;
12878;SDS011;20617;49.476;10.986;2023-06-14T05:22:55;4.15;;;3.40;;
12878;SDS011;20617;49.476;10.986;2023-06-14T05:27:06;5.30;;;3.83;;
12878;SDS011;20617;49.476;10.986;2023-06-14T05:29:11;6.07;;;3.63;;
12878;SDS011;20617;49.476;10.986;2023-06-14T05:31:16;3.92;;;3.33;;
12878;SDS011;20617;49.476;10.986;2023-06-14T05:33:24;6.05;;;4.00;;
12878;SDS011;20617;49.476;10.986;2023-06-14T05:35:30;5.53;;;3.55;;
12878;SDS011;20617;49.476;10.986;2023-06-14T05:37:35;6.00;;;4.20;;
12878;SDS011;20617;49.476;10.986;2023-06-14T05:39:40;6.85;;;3.95;;
12878;SDS011;20617;49.476;10.986;2023-06-14T05:41:45;6.68;;;3.60;;
12878;SDS011;20617;49.476;10.986;2023-06-14T05:43:51;6.63;;;4.07;;
12878;SDS011;20617;49.476;10.986;2023-06-14T05:45:57;9.68;;;3.80;;
12878;SDS011;20617;49.476;10.986;2023-06-14T05:48:02;4.25;;;3.10;;
12878;SDS011;20617;49.476;10.986;2023-06-14T05:50:10;6.22;;;3.70;;
12878;SDS011;20617;49.476;10.986;2023-06-14T05:52:15;6.63;;;3.92;;
12878;SDS011;20617;49.476;10.986;2023-06-14T05:54:20;7.35;;;4.32;;
12878;SDS011;20617;49.476;10.986;2023-06-14T05:56:25;6.03;;;3.63;;
12878;SDS011;20617;49.476;10.986;2023-06-14T06:00:35;8.88;;;3.70;;
12878;SDS011;20617;49.476;10.986;2023-06-14T06:04:45;7.63;;;3.60;;
12878;SDS011;20617;49.476;10.986;2023-06-14T06:06:53;5.65;;;3.60;;
12878;SDS011;20617;49.476;10.986;2023-06-14T06:08:58;4.97;;;3.53;;
12878;SDS011;20617;49.476;10.986;2023-06-14T06:11:03;11.48;;;4.43;;
12878;SDS011;20617;49.476;10.986;2023-06-14T06:15:13;7.28;;;3.72;;
12878;SDS011;20617;49.476;10.986;2023-06-14T06:17:19;6.38;;;4.20;;
12878;SDS011;20617;49.476;10.986;2023-06-14T06:19:25;6.47;;;3.67;;
12878;SDS011;20617;49.476;10.986;2023-06-14T06:21:30;9.23;;;3.95;;
12878;SDS011;20617;49.476;10.986;2023-06-14T06:23:38;10.02;;;4.03;;
12878;SDS011;20617;49.476;10.986;2023-06-14T06:25:43;5.35;;;2.95;;
12878;SDS011;20617;49.476;10.986;2023-06-14T06:27:48;11.88;;;4.05;;
12878;SDS011;20617;49.476;10.986;2023-06-14T06:29:53;8.55;;;3.88;;
12878;SDS011;20617;49.476;10.986;2023-06-14T06:34:03;14.27;;;3.72;;
12878;SDS011;20617;49.476;10.986;2023-06-14T06:36:08;5.32;;;3.53;;
12878;SDS011;20617;49.476;10.986;2023-06-14T06:38:13;7.40;;;3.80;;
12878;SDS011;20617;49.476;10.986;2023-06-14T06:40:23;6.28;;;3.83;;
12878;SDS011;20617;49.476;10.986;2023-06-14T06:42:28;6.88;;;3.60;;
12878;SDS011;20617;49.476;10.986;2023-06-14T06:44:36;5.85;;;3.78;;
12878;SDS011;20617;49.476;10.986;2023-06-14T06:46:43;7.10;;;3.60;;
12878;SDS011;20617;49.476;10.986;2023-06-14T06:48:48;8.15;;;3.72;;
12878;SDS011;20617;49.476;10.986;2023-06-14T06:50:53;4.28;;;3.05;;
12878;SDS011;20617;49.476;10.986;2023-06-14T06:52:58;6.65;;;3.00;;
12878;SDS011;20617;49.476;10.986;2023-06-14T06:55:03;4.82;;;3.10;;
12878;SDS011;20617;49.476;10.986;2023-06-14T06:57:13;5.03;;;3.33;;
12878;SDS011;20617;49.476;10.986;2023-06-14T06:59:18;4.50;;;3.10;;
12878;SDS011;20617;49.476;10.986;2023-06-14T07:01:23;4.88;;;3.15;;
12878;SDS011;20617;49.476;10.986;2023-06-14T07:03:30;4.90;;;2.80;;
12878;SDS011;20617;49.476;10.986;2023-06-14T07:05:35;4.63;;;3.55;;
12878;SDS011;20617;49.476;10.986;2023-06-14T07:07:40;4.55;;;3.08;;
12878;SDS011;20617;49.476;10.986;2023-06-14T07:11:50;4.10;;;3.20;;
12878;SDS011;20617;49.476;10.986;2023-06-14T07:13:58;6.13;;;3.35;;
12878;SDS011;20617;49.476;10.986;2023-06-14T07:16:04;4.70;;;3.47;;
12878;SDS011;20617;49.476;10.986;2023-06-14T07:18:09;5.43;;;3.13;;
12878;SDS011;20617;49.476;10.986;2023-06-14T07:20:17;6.07;;;3.30;;
12878;SDS011;20617;49.476;10.986;2023-06-14T07:22:23;5.55;;;3.45;;
12878;SDS011;20617;49.476;10.986;2023-06-14T07:26:32;4.13;;;2.83;;
12878;SDS011;20617;49.476;10.986;2023-06-14T07:28:38;6.55;;;3.60;;
12878;SDS011;20617;49.476;10.986;2023-06-14T07:30:49;5.70;;;3.50;;
12878;SDS011;20617;49.476;10.986;2023-06-14T07:32:54;5.28;;;3.30;;
12878;SDS011;20617;49.476;10.986;2023-06-14T07:34:59;4.00;;;2.97;;
12878;SDS011;20617;49.476;10.986;2023-06-14T07:37:05;3.88;;;2.90;;
12878;SDS011;20617;49.476;10.986;2023-06-14T07:39:10;6.85;;;3.60;;
12878;SDS011;20617;49.476;10.986;2023-06-14T07:41:15;4.32;;;3.17;;
12878;SDS011;20617;49.476;10.986;2023-06-14T07:43:20;2.85;;;2.47;;
12878;SDS011;20617;49.476;10.986;2023-06-14T07:45:25;5.60;;;3.28;;
12878;SDS011;20617;49.476;10.986;2023-06-14T07:47:33;6.47;;;2.92;;
12878;SDS011;20617;49.476;10.986;2023-06-14T07:49:39;5.50;;;3.28;;
12878;SDS011;20617;49.476;10.986;2023-06-14T07:53:49;6.43;;;3.33;;
12878;SDS011;20617;49.476;10.986;2023-06-14T07:55:54;3.78;;;2.80;;
12878;SDS011;20617;49.476;10.986;2023-06-14T08:00:05;4.75;;;3.08;;
12878;SDS011;20617;49.476;10.986;2023-06-14T08:02:14;5.63;;;3.20;;
12878;SDS011;20617;49.476;10.986;2023-06-14T08:06:27;4.28;;;3.30;;
12878;SDS011;20617;49.476;10.986;2023-06-14T08:10:37;7.72;;;3.03;;
12878;SDS011;20617;49.476;10.986;2023-06-14T08:12:42;5.50;;;3.30;;
12878;SDS011;20617;49.476;10.986;2023-06-14T08:17:09;6.15;;;3.72;;
12878;SDS011;20617;49.476;10.986;2023-06-14T08:19:14;4.93;;;3.00;;
12878;SDS011;20617;49.476;10.986;2023-06-14T08:21:23;9.02;;;3.40;;
12878;SDS011;20617;49.476;10.986;2023-06-14T08:23:31;6.95;;;3.65;;
12878;SDS011;20617;49.476;10.986;2023-06-14T08:27:40;5.53;;;3.40;;
12878;SDS011;20617;49.476;10.986;2023-06-14T08:29:46;3.83;;;2.90;;
12878;SDS011;20617;49.476;10.986;2023-06-14T08:31:51;4.57;;;3.40;;
12878;SDS011;20617;49.476;10.986;2023-06-14T08:33:56;5.85;;;3.45;;
12878;SDS011;20617;49.476;10.986;2023-06-14T08:36:03;4.03;;;3.05;;
12878;SDS011;20617;49.476;10.986;2023-06-14T08:38:11;6.70;;;3.22;;
12878;SDS011;20617;49.476;10.986;2023-06-14T08:40:19;6.20;;;3.20;;
12878;SDS011;20617;49.476;10.986;2023-06-14T08:42:25;6.45;;;3.72;;
12878;SDS011;20617;49.476;10.986;2023-06-14T08:44:33;6.28;;;3.33;;
12878;SDS011;20617;49.476;10.986;2023-06-14T08:46:38;5.72;;;3.10;;
12878;SDS011;20617;49.476;10.986;2023-06-14T08:48:43;4.88;;;3.20;;
12878;SDS011;20617;49.476;10.986;2023-06-14T08:50:48;6.72;;;3.10;;
12878;SDS011;20617;49.476;10.986;2023-06-14T08:52:57;7.00;;;3.53;;
12878;SDS011;20617;49.476;10.986;2023-06-14T08:55:08;5.68;;;3.42;;
12878;SDS011;20617;49.476;10.986;2023-06-14T08:57:13;6.68;;;3.28;;
12878;SDS011;20617;49.476;10.986;2023-06-14T08:59:19;4.03;;;2.95;;
12878;SDS011;20617;49.476;10.986;2023-06-14T09:01:25;3.90;;;2.78;;
12878;SDS011;20617;49.476;10.986;2023-06-14T09:03:30;4.60;;;3.03;;
12878;SDS011;20617;49.476;10.986;2023-06-14T09:07:40;8.15;;;3.47;;
12878;SDS011;20617;49.476;10.986;2023-06-14T09:09:46;6.00;;;3.13;;
12878;SDS011;20617;49.476;10.986;2023-06-14T09:12:10;8.00;;;3.83;;
12878;SDS011;20617;49.476;10.986;2023-06-14T09:14:15;7.63;;;3.38;;
12878;SDS011;20617;49.476;10.986;2023-06-14T09:16:20;5.60;;;3.22;;
12878;SDS011;20617;49.476;10.986;2023-06-14T09:18:33;7.68;;;3.42;;
12878;SDS011;20617;49.476;10.986;2023-06-14T09:20:40;8.57;;;3.67;;
12878;SDS011;20617;49.476;10.986;2023-06-14T09:22:45;6.32;;;3.25;;
12878;SDS011;20617;49.476;10.986;2023-06-14T09:26:55;4.93;;;3.10;;
12878;SDS011;20617;49.476;10.986;2023-06-14T09:29:04;8.30;;;3.92;;
12878;SDS011;20617;49.476;10.986;2023-06-14T09:31:10;7.75;;;3.33;;
12878;SDS011;20617;49.476;10.986;2023-06-14T09:33:16;3.88;;;2.83;;
12878;SDS011;20617;49.476;10.986;2023-06-14T09:35:22;5.70;;;3.08;;
12878;SDS011;20617;49.476;10.986;2023-06-14T09:39:33;9.23;;;2.83;;
12878;SDS011;20617;49.476;10.986;2023-06-14T09:41:39;6.68;;;3.90;;
12878;SDS011;20617;49.476;10.986;2023-06-14T09:43:46;6.72;;;3.13;;
12878;SDS011;20617;49.476;10.986;2023-06-14T09:45:54;5.93;;;3.30;;
12878;SDS011;20617;49.476;10.986;2023-06-14T09:48:00;4.63;;;3.42;;
12878;SDS011;20617;49.476;10.986;2023-06-14T09:50:09;5.97;;;3.00;;
12878;SDS011;20617;49.476;10.986;2023-06-14T09:52:15;6.68;;;3.38;;
12878;SDS011;20617;49.476;10.986;2023-06-14T09:54:22;4.93;;;3.05;;
12878;SDS011;20617;49.476;10.986;2023-06-14T09:56:28;7.78;;;3.30;;
12878;SDS011;20617;49.476;10.986;2023-06-14T09:58:35;5.85;;;3.10;;
12878;SDS011;20617;49.476;10.986;2023-06-14T10:00:50;5.97;;;2.67;;
12878;SDS011;20617;49.476;10.986;2023-06-14T10:03:00;7.88;;;3.20;;
12878;SDS011;20617;49.476;10.986;2023-06-14T10:05:11;5.63;;;3.63;;
12878;SDS011;20617;49.476;10.986;2023-06-14T10:07:19;5.45;;;3.45;;
12878;SDS011;20617;49.476;10.986;2023-06-14T10:09:25;4.10;;;3.10;;
12878;SDS011;20617;49.476;10.986;2023-06-14T10:11:33;5.50;;;2.80;;
12878;SDS011;20617;49.476;10.986;2023-06-14T10:13:46;8.95;;;3.33;;
12878;SDS011;20617;49.476;10.986;2023-06-14T10:15:57;5.70;;;2.88;;
12878;SDS011;20617;49.476;10.986;2023-06-14T10:18:10;9.57;;;3.33;;
12878;SDS011;20617;49.476;10.986;2023-06-14T10:20:26;5.90;;;3.05;;
12878;SDS011;20617;49.476;10.986;2023-06-14T10:22:40;6.15;;;3.05;;
12878;SDS011;20617;49.476;10.986;2023-06-14T10:24:49;4.55;;;3.20;;
12878;SDS011;20617;49.476;10.986;2023-06-14T10:26:55;4.90;;;2.90;;
12878;SDS011;20617;49.476;10.986;2023-06-14T10:29:07;3.85;;;2.78;;
12878;SDS011;20617;49.476;10.986;2023-06-14T10:31:15;3.60;;;2.80;;
12878;SDS011;20617;49.476;10.986;2023-06-14T10:33:20;4.05;;;2.70;;
12878;SDS011;20617;49.476;10.986;2023-06-14T10:37:30;5.90;;;3.13;;
12878;SDS011;20617;49.476;10.986;2023-06-14T10:41:50;3.78;;;2.85;;
12878;SDS011;20617;49.476;10.986;2023-06-14T10:46:33;3.90;;;2.63;;
12878;SDS011;20617;49.476;10.986;2023-06-14T10:48:40;3.28;;;2.63;;
12878;SDS011;20617;49.476;10.986;2023-06-14T10:50:47;3.70;;;2.92;;
12878;SDS011;20617;49.476;10.986;2023-06-14T10:52:52;3.22;;;2.92;;
12878;SDS011;20617;49.476;10.986;2023-06-14T10:55:00;5.93;;;2.90;;
12878;SDS011;20617;49.476;10.986;2023-06-14T10:57:07;3.20;;;2.65;;
12878;SDS011;20617;49.476;10.986;2023-06-14T11:01:18;6.30;;;2.85;;
12878;SDS011;20617;49.476;10.986;2023-06-14T11:03:43;5.05;;;3.00;;
12878;SDS011;20617;49.476;10.986;2023-06-14T11:05:56;5.68;;;2.90;;
12878;SDS011;20617;49.476;10.986;2023-06-14T11:08:08;4.28;;;2.78;;
12878;SDS011;20617;49.476;10.986;2023-06-14T11:12:40;5.68;;;2.60;;
12878;SDS011;20617;49.476;10.986;2023-06-14T11:14:50;4.90;;;2.60;;
12878;SDS011;20617;49.476;10.986;2023-06-14T11:19:03;5.20;;;2.43;;
12878;SDS011;20617;49.476;10.986;2023-06-14T11:21:08;3.28;;;2.47;;
12878;SDS011;20617;49.476;10.986;2023-06-14T11:25:18;4.72;;;2.85;;
12878;SDS011;20617;49.476;10.986;2023-06-14T11:27:23;3.15;;;2.80;;
12878;SDS011;20617;49.476;10.986;2023-06-14T11:29:31;5.53;;;2.85;;
12878;SDS011;20617;49.476;10.986;2023-06-14T11:33:41;5.35;;;3.15;;
12878;SDS011;20617;49.476;10.986;2023-06-14T11:37:54;7.97;;;3.35;;
12878;SDS011;20617;49.476;10.986;2023-06-14T11:40:00;6.03;;;2.90;;
12878;SDS011;20617;49.476;10.986;2023-06-14T11:42:05;12.85;;;3.55;;
12878;SDS011;20617;49.476;10.986;2023-06-14T11:44:12;5.80;;;2.85;;
12878;SDS011;20617;49.476;10.986;2023-06-14T11:48:35;7.53;;;2.92;;
12878;SDS011;20617;49.476;10.986;2023-06-14T11:50:40;3.55;;;2.63;;
12878;SDS011;20617;49.476;10.986;2023-06-14T11:52:51;7.10;;;3.22;;
12878;SDS011;20617;49.476;10.986;2023-06-14T11:54:57;6.00;;;2.75;;
12878;SDS011;20617;49.476;10.986;2023-06-14T11:57:04;4.47;;;2.60;;
12878;SDS011;20617;49.476;10.986;2023-06-14T11:59:11;3.35;;;2.80;;
12878;SDS011;20617;49.476;10.986;2023-06-14T12:01:18;2.83;;;2.63;;
12878;SDS011;20617;49.476;10.986;2023-06-14T12:03:23;3.08;;;2.55;;
12878;SDS011;20617;49.476;10.986;2023-06-14T12:05:30;3.33;;;2.90;;
12878;SDS011;20617;49.476;10.986;2023-06-14T12:07:38;3.83;;;2.80;;
12878;SDS011;20617;49.476;10.986;2023-06-14T12:12:12;3.78;;;2.80;;
12878;SDS011;20617;49.476;10.986;2023-06-14T12:14:17;5.95;;;3.17;;
12878;SDS011;20617;49.476;10.986;2023-06-14T12:16:29;4.28;;;2.92;;
12878;SDS011;20617;49.476;10.986;2023-06-14T12:18:36;4.60;;;2.63;;
12878;SDS011;20617;49.476;10.986;2023-06-14T12:20:43;3.53;;;2.65;;
12878;SDS011;20617;49.476;10.986;2023-06-14T12:22:54;4.35;;;2.92;;
12878;SDS011;20617;49.476;10.986;2023-06-14T12:25:00;3.50;;;2.80;;
12878;SDS011;20617;49.476;10.986;2023-06-14T12:29:13;5.25;;;2.90;;
12878;SDS011;20617;49.476;10.986;2023-06-14T12:33:23;4.72;;;2.90;;
12878;SDS011;20617;49.476;10.986;2023-06-14T12:35:28;8.35;;;3.40;;
12878;SDS011;20617;49.476;10.986;2023-06-14T12:39:39;3.13;;;2.50;;
12878;SDS011;20617;49.476;10.986;2023-06-14T12:43:51;7.53;;;2.83;;
12878;SDS011;20617;49.476;10.986;2023-06-14T12:45:57;5.47;;;3.05;;
12878;SDS011;20617;49.476;10.986;2023-06-14T12:48:02;8.43;;;3.45;;
12878;SDS011;20617;49.476;10.986;2023-06-14T12:50:07;3.72;;;2.72;;
12878;SDS011;20617;49.476;10.986;2023-06-14T12:52:12;5.80;;;2.58;;
12878;SDS011;20617;49.476;10.986;2023-06-14T12:56:41;8.65;;;2.90;;
12878;SDS011;20617;49.476;10.986;2023-06-14T12:58:46;6.18;;;2.90;;
12878;SDS011;20617;49.476;10.986;2023-06-14T13:02:59;6.40;;;2.72;;
12878;SDS011;20617;49.476;10.986;2023-06-14T13:05:04;9.77;;;3.00;;
12878;SDS011;20617;49.476;10.986;2023-06-14T13:07:10;15.15;;;3.95;;
12878;SDS011;20617;49.476;10.986;2023-06-14T13:09:16;3.67;;;2.65;;
12878;SDS011;20617;49.476;10.986;2023-06-14T13:13:26;9.18;;;3.15;;
12878;SDS011;20617;49.476;10.986;2023-06-14T13:15:31;5.63;;;2.88;;
12878;SDS011;20617;49.476;10.986;2023-06-14T13:17:39;10.23;;;3.50;;
12878;SDS011;20617;49.476;10.986;2023-06-14T13:19:45;33.38;;;6.30;;
12878;SDS011;20617;49.476;10.986;2023-06-14T13:21:50;5.50;;;2.80;;
12878;SDS011;20617;49.476;10.986;2023-06-14T13:26:00;8.45;;;3.25;;
12878;SDS011;20617;49.476;10.986;2023-06-14T13:28:05;8.40;;;2.80;;
12878;SDS011;20617;49.476;10.986;2023-06-14T13:30:11;4.13;;;2.60;;
12878;SDS011;20617;49.476;10.986;2023-06-14T13:32:17;7.05;;;2.83;;
12878;SDS011;20617;49.476;10.986;2023-06-14T13:34:25;2.40;;;2.20;;
12878;SDS011;20617;49.476;10.986;2023-06-14T13:36:30;3.05;;;2.63;;
12878;SDS011;20617;49.476;10.986;2023-06-14T13:38:35;4.57;;;2.90;;
12878;SDS011;20617;49.476;10.986;2023-06-14T13:42:45;5.95;;;2.80;;
12878;SDS011;20617;49.476;10.986;2023-06-14T13:44:51;3.38;;;2.22;;
12878;SDS011;20617;49.476;10.986;2023-06-14T13:49:01;9.40;;;2.28;;
12878;SDS011;20617;49.476;10.986;2023-06-14T13:51:09;7.63;;;3.20;;
12878;SDS011;20617;49.476;10.986;2023-06-14T13:53:14;3.72;;;2.53;;
12878;SDS011;20617;49.476;10.986;2023-06-14T13:55:19;3.47;;;2.50;;
12878;SDS011;20617;49.476;10.986;2023-06-14T13:59:29;3.80;;;2.65;;
12878;SDS011;20617;49.476;10.986;2023-06-14T14:01:34;2.30;;;2.10;;
12878;SDS011;20617;49.476;10.986;2023-06-14T14:03:39;4.95;;;2.40;;
12878;SDS011;20617;49.476;10.986;2023-06-14T14:05:45;7.85;;;2.92;;
12878;SDS011;20617;49.476;10.986;2023-06-14T14:07:52;8.63;;;2.95;;
12878;SDS011;20617;49.476;10.986;2023-06-14T14:09:58;3.75;;;2.70;;
12878;SDS011;20617;49.476;10.986;2023-06-14T14:14:09;3.42;;;2.90;;
12878;SDS011;20617;49.476;10.986;2023-06-14T14:16:14;2.92;;;2.47;;
12878;SDS011;20617;49.476;10.986;2023-06-14T14:18:20;3.35;;;2.60;;
12878;SDS011;20617;49.476;10.986;2023-06-14T14:20:26;6.82;;;2.67;;
12878;SDS011;20617;49.476;10.986;2023-06-14T14:22:32;6.95;;;2.90;;
12878;SDS011;20617;49.476;10.986;2023-06-14T14:24:40;4.07;;;2.70;;
12878;SDS011;20617;49.476;10.986;2023-06-14T14:26:44;4.93;;;2.78;;
12878;SDS011;20617;49.476;10.986;2023-06-14T14:28:51;5.78;;;2.55;;
12878;SDS011;20617;49.476;10.986;2023-06-14T14:30:56;4.55;;;2.63;;